sensor_id;sensor_type;location;lat;lon;timestamp;P1;durP1;ratioP1;P2;durP2;ratioP2
60641;SDS011;46837;52.446;-1.930;2022-12-26T00:00:08;16.58;;;2.48;;
60641;SDS011;46837;52.446;-1.930;2022-12-26T00:01:08;15.28;;;1.88;;
60641;SDS011;46837;52.446;-1.930;2022-12-26T00:02:07;12.84;;;2.60;;
60641;SDS011;46837;52.446;-1.930;2022-12-26T00:03:07;16.88;;;2.12;;
60641;SDS011;46837;52.446;-1.930;2022-12-26T00:04:07;13.42;;;2.30;;
60641;SDS011;46837;52.446;-1.930;2022-12-26T00:05:07;14.22;;;2.04;;
60641;SDS011;46837;52.446;-1.930;2022-12-26T00:06:10;7.12;;;1.78;;
60641;SDS011;46837;52.446;-1.930;2022-12-26T00:07:07;16.16;;;2.54;;
60641;SDS011;46837;52.446;-1.930;2022-12-26T00:08:07;13.54;;;2.22;;
60641;SDS011;46837;52.446;-1.930;2022-12-26T00:09:07;13.86;;;1.76;;
60641;SDS011;46837;52.446;-1.930;2022-12-26T00:10:07;6.36;;;1.46;;
60641;SDS011;46837;52.446;-1.930;2022-12-26T00:11:07;9.98;;;2.38;;
60641;SDS011;46837;52.446;-1.930;2022-12-26T00:12:07;11.72;;;2.38;;
60641;SDS011;46837;52.446;-1.930;2022-12-26T00:13:07;19.18;;;2.62;;
60641;SDS011;46837;52.446;-1.930;2022-12-26T00:14:08;17.22;;;3.08;;
60641;SDS011;46837;52.446;-1.930;2022-12-26T00:15:07;13.88;;;2.42;;
60641;SDS011;46837;52.446;-1.930;2022-12-26T00:17:07;18.14;;;3.68;;
60641;SDS011;46837;52.446;-1.930;2022-12-26T00:18:07;14.02;;;2.26;;
60641;SDS011;46837;52.446;-1.930;2022-12-26T00:19:07;11.24;;;1.68;;
60641;SDS011;46837;52.446;-1.930;2022-12-26T00:20:07;12.02;;;1.78;;
60641;SDS011;46837;52.446;-1.930;2022-12-26T00:21:07;13.32;;;2.86;;
60641;SDS011;46837;52.446;-1.930;2022-12-26T00:22:07;13.82;;;1.98;;
60641;SDS011;46837;52.446;-1.930;2022-12-26T00:23:07;15.96;;;2.54;;
60641;SDS011;46837;52.446;-1.930;2022-12-26T00:24:08;12.76;;;1.90;;
60641;SDS011;46837;52.446;-1.930;2022-12-26T00:25:07;17.82;;;1.56;;
60641;SDS011;46837;52.446;-1.930;2022-12-26T00:26:11;12.40;;;2.80;;
60641;SDS011;46837;52.446;-1.930;2022-12-26T00:27:07;13.12;;;1.92;;
60641;SDS011;46837;52.446;-1.930;2022-12-26T00:28:07;19.82;;;2.38;;
60641;SDS011;46837;52.446;-1.930;2022-12-26T00:29:07;13.16;;;1.80;;
60641;SDS011;46837;52.446;-1.930;2022-12-26T00:30:07;11.08;;;1.92;;
60641;SDS011;46837;52.446;-1.930;2022-12-26T00:31:08;11.40;;;2.02;;
60641;SDS011;46837;52.446;-1.930;2022-12-26T00:32:07;8.54;;;1.56;;
60641;SDS011;46837;52.446;-1.930;2022-12-26T00:33:07;12.88;;;2.52;;
60641;SDS011;46837;52.446;-1.930;2022-12-26T00:34:08;9.50;;;1.82;;
60641;SDS011;46837;52.446;-1.930;2022-12-26T00:35:07;10.84;;;1.76;;
60641;SDS011;46837;52.446;-1.930;2022-12-26T00:36:08;16.52;;;2.12;;
60641;SDS011;46837;52.446;-1.930;2022-12-26T00:37:07;9.70;;;2.62;;
60641;SDS011;46837;52.446;-1.930;2022-12-26T00:38:07;19.04;;;3.08;;
60641;SDS011;46837;52.446;-1.930;2022-12-26T00:39:07;12.66;;;2.90;;
60641;SDS011;46837;52.446;-1.930;2022-12-26T00:40:07;16.66;;;1.68;;
60641;SDS011;46837;52.446;-1.930;2022-12-26T00:41:07;17.58;;;2.10;;
60641;SDS011;46837;52.446;-1.930;2022-12-26T00:42:07;10.46;;;2.36;;
60641;SDS011;46837;52.446;-1.930;2022-12-26T00:43:07;11.70;;;2.60;;
60641;SDS011;46837;52.446;-1.930;2022-12-26T00:44:07;11.46;;;1.74;;
60641;SDS011;46837;52.446;-1.930;2022-12-26T00:45:07;9.54;;;1.24;;
60641;SDS011;46837;52.446;-1.930;2022-12-26T00:46:07;12.00;;;2.24;;
60641;SDS011;46837;52.446;-1.930;2022-12-26T00:47:07;13.62;;;2.16;;
60641;SDS011;46837;52.446;-1.930;2022-12-26T00:48:07;11.32;;;1.38;;
60641;SDS011;46837;52.446;-1.930;2022-12-26T00:49:07;11.12;;;2.30;;
60641;SDS011;46837;52.446;-1.930;2022-12-26T00:50:07;12.62;;;1.64;;
60641;SDS011;46837;52.446;-1.930;2022-12-26T00:51:07;14.50;;;2.10;;
60641;SDS011;46837;52.446;-1.930;2022-12-26T00:52:07;17.82;;;1.84;;
60641;SDS011;46837;52.446;-1.930;2022-12-26T00:53:07;11.46;;;1.86;;
60641;SDS011;46837;52.446;-1.930;2022-12-26T00:54:07;18.94;;;2.10;;
60641;SDS011;46837;52.446;-1.930;2022-12-26T00:55:07;11.38;;;2.58;;
60641;SDS011;46837;52.446;-1.930;2022-12-26T00:56:07;11.18;;;1.68;;
60641;SDS011;46837;52.446;-1.930;2022-12-26T00:57:07;13.20;;;2.64;;
60641;SDS011;46837;52.446;-1.930;2022-12-26T00:58:07;17.50;;;2.52;;
60641;SDS011;46837;52.446;-1.930;2022-12-26T00:59:07;9.18;;;1.52;;
60641;SDS011;46837;52.446;-1.930;2022-12-26T01:00:07;15.04;;;1.94;;
60641;SDS011;46837;52.446;-1.930;2022-12-26T01:02:11;13.18;;;1.64;;
60641;SDS011;46837;52.446;-1.930;2022-12-26T01:03:07;4.68;;;1.24;;
60641;SDS011;46837;52.446;-1.930;2022-12-26T01:04:07;7.60;;;1.94;;
60641;SDS011;46837;52.446;-1.930;2022-12-26T01:05:08;11.10;;;2.36;;
60641;SDS011;46837;52.446;-1.930;2022-12-26T01:06:07;10.94;;;1.38;;
60641;SDS011;46837;52.446;-1.930;2022-12-26T01:07:07;13.86;;;2.08;;
60641;SDS011;46837;52.446;-1.930;2022-12-26T01:08:07;8.16;;;1.50;;
60641;SDS011;46837;52.446;-1.930;2022-12-26T01:09:07;3.90;;;1.16;;
60641;SDS011;46837;52.446;-1.930;2022-12-26T01:10:08;10.46;;;1.82;;
60641;SDS011;46837;52.446;-1.930;2022-12-26T01:11:08;11.90;;;1.86;;
60641;SDS011;46837;52.446;-1.930;2022-12-26T01:12:07;9.14;;;1.22;;
60641;SDS011;46837;52.446;-1.930;2022-12-26T01:13:07;17.48;;;1.98;;
60641;SDS011;46837;52.446;-1.930;2022-12-26T01:14:08;5.18;;;1.12;;
60641;SDS011;46837;52.446;-1.930;2022-12-26T01:15:07;5.18;;;1.00;;
60641;SDS011;46837;52.446;-1.930;2022-12-26T01:16:07;9.24;;;2.00;;
60641;SDS011;46837;52.446;-1.930;2022-12-26T01:17:07;7.32;;;2.52;;
60641;SDS011;46837;52.446;-1.930;2022-12-26T01:18:07;9.02;;;1.52;;
60641;SDS011;46837;52.446;-1.930;2022-12-26T01:19:07;10.08;;;1.74;;
60641;SDS011;46837;52.446;-1.930;2022-12-26T01:20:07;6.94;;;1.40;;
60641;SDS011;46837;52.446;-1.930;2022-12-26T01:21:08;6.60;;;1.24;;
60641;SDS011;46837;52.446;-1.930;2022-12-26T01:22:07;8.02;;;1.12;;
60641;SDS011;46837;52.446;-1.930;2022-12-26T01:23:07;5.64;;;1.04;;
60641;SDS011;46837;52.446;-1.930;2022-12-26T01:24:07;5.22;;;1.18;;
60641;SDS011;46837;52.446;-1.930;2022-12-26T01:25:07;9.20;;;1.44;;
60641;SDS011;46837;52.446;-1.930;2022-12-26T01:26:07;11.02;;;1.34;;
60641;SDS011;46837;52.446;-1.930;2022-12-26T01:27:07;12.00;;;2.28;;
60641;SDS011;46837;52.446;-1.930;2022-12-26T01:28:07;8.72;;;1.62;;
60641;SDS011;46837;52.446;-1.930;2022-12-26T01:29:07;11.60;;;0.94;;
60641;SDS011;46837;52.446;-1.930;2022-12-26T01:30:07;10.56;;;1.14;;
60641;SDS011;46837;52.446;-1.930;2022-12-26T01:31:07;5.40;;;0.96;;
60641;SDS011;46837;52.446;-1.930;2022-12-26T01:32:07;9.04;;;2.06;;
60641;SDS011;46837;52.446;-1.930;2022-12-26T01:33:07;6.26;;;1.24;;
60641;SDS011;46837;52.446;-1.930;2022-12-26T01:34:07;13.96;;;2.14;;
60641;SDS011;46837;52.446;-1.930;2022-12-26T01:35:07;8.22;;;1.94;;
60641;SDS011;46837;52.446;-1.930;2022-12-26T01:36:07;4.86;;;0.98;;
60641;SDS011;46837;52.446;-1.930;2022-12-26T01:37:07;8.72;;;1.94;;
60641;SDS011;46837;52.446;-1.930;2022-12-26T01:38:07;10.26;;;1.02;;
60641;SDS011;46837;52.446;-1.930;2022-12-26T01:39:07;6.38;;;0.92;;
60641;SDS011;46837;52.446;-1.930;2022-12-26T01:40:07;3.62;;;0.64;;
60641;SDS011;46837;52.446;-1.930;2022-12-26T01:41:11;3.80;;;0.70;;
60641;SDS011;46837;52.446;-1.930;2022-12-26T01:43:08;0.74;;;0.42;;
60641;SDS011;46837;52.446;-1.930;2022-12-26T01:44:53;6.34;;;1.18;;
60641;SDS011;46837;52.446;-1.930;2022-12-26T01:46:07;5.80;;;0.62;;
60641;SDS011;46837;52.446;-1.930;2022-12-26T01:47:07;1.56;;;0.46;;
60641;SDS011;46837;52.446;-1.930;2022-12-26T01:49:52;1.74;;;0.30;;
60641;SDS011;46837;52.446;-1.930;2022-12-26T01:50:11;0.50;;;0.20;;
60641;SDS011;46837;52.446;-1.930;2022-12-26T01:51:07;0.60;;;0.12;;
60641;SDS011;46837;52.446;-1.930;2022-12-26T01:52:08;2.42;;;0.20;;
60641;SDS011;46837;52.446;-1.930;2022-12-26T01:54:07;0.32;;;0.20;;
60641;SDS011;46837;52.446;-1.930;2022-12-26T01:55:07;0.56;;;0.48;;
60641;SDS011;46837;52.446;-1.930;2022-12-26T01:56:10;1.18;;;0.10;;
60641;SDS011;46837;52.446;-1.930;2022-12-26T01:57:09;0.10;;;0.10;;
60641;SDS011;46837;52.446;-1.930;2022-12-26T01:58:09;0.80;;;0.12;;
60641;SDS011;46837;52.446;-1.930;2022-12-26T01:59:08;1.62;;;0.22;;
60641;SDS011;46837;52.446;-1.930;2022-12-26T02:00:07;4.90;;;0.18;;
60641;SDS011;46837;52.446;-1.930;2022-12-26T02:01:07;0.44;;;0.10;;
60641;SDS011;46837;52.446;-1.930;2022-12-26T02:02:07;0.14;;;0.00;;
60641;SDS011;46837;52.446;-1.930;2022-12-26T02:03:11;3.72;;;0.28;;
60641;SDS011;46837;52.446;-1.930;2022-12-26T02:04:12;0.72;;;0.10;;
60641;SDS011;46837;52.446;-1.930;2022-12-26T02:05:11;0.94;;;0.10;;
60641;SDS011;46837;52.446;-1.930;2022-12-26T02:06:07;1.56;;;0.10;;
60641;SDS011;46837;52.446;-1.930;2022-12-26T02:07:07;2.50;;;0.16;;
60641;SDS011;46837;52.446;-1.930;2022-12-26T02:08:12;1.38;;;0.22;;
60641;SDS011;46837;52.446;-1.930;2022-12-26T02:09:07;0.66;;;0.20;;
60641;SDS011;46837;52.446;-1.930;2022-12-26T02:10:08;0.80;;;0.20;;
60641;SDS011;46837;52.446;-1.930;2022-12-26T02:11:11;1.12;;;0.20;;
60641;SDS011;46837;52.446;-1.930;2022-12-26T02:12:14;0.06;;;0.00;;
60641;SDS011;46837;52.446;-1.930;2022-12-26T02:13:07;2.04;;;0.12;;
60641;SDS011;46837;52.446;-1.930;2022-12-26T02:14:07;1.58;;;0.30;;
60641;SDS011;46837;52.446;-1.930;2022-12-26T02:15:09;0.66;;;0.14;;
60641;SDS011;46837;52.446;-1.930;2022-12-26T02:16:08;1.64;;;0.20;;
60641;SDS011;46837;52.446;-1.930;2022-12-26T02:17:07;1.60;;;0.20;;
60641;SDS011;46837;52.446;-1.930;2022-12-26T02:18:07;0.52;;;0.14;;
60641;SDS011;46837;52.446;-1.930;2022-12-26T02:19:08;3.32;;;0.10;;
60641;SDS011;46837;52.446;-1.930;2022-12-26T02:21:10;3.30;;;0.66;;
60641;SDS011;46837;52.446;-1.930;2022-12-26T02:26:15;3.32;;;0.84;;
60641;SDS011;46837;52.446;-1.930;2022-12-26T02:28:15;0.54;;;0.02;;
60641;SDS011;46837;52.446;-1.930;2022-12-26T02:29:21;0.28;;;0.10;;
60641;SDS011;46837;52.446;-1.930;2022-12-26T02:31:11;3.30;;;0.66;;
60641;SDS011;46837;52.446;-1.930;2022-12-26T02:41:21;0.30;;;0.04;;
60641;SDS011;46837;52.446;-1.930;2022-12-26T02:42:11;0.46;;;0.06;;
60641;SDS011;46837;52.446;-1.930;2022-12-26T02:47:10;2.22;;;0.30;;
60641;SDS011;46837;52.446;-1.930;2022-12-26T02:48:11;1.62;;;0.18;;
60641;SDS011;46837;52.446;-1.930;2022-12-26T02:52:20;1.52;;;0.42;;
60641;SDS011;46837;52.446;-1.930;2022-12-26T02:54:30;0.30;;;0.10;;
60641;SDS011;46837;52.446;-1.930;2022-12-26T02:55:14;0.24;;;0.10;;
60641;SDS011;46837;52.446;-1.930;2022-12-26T02:56:13;0.34;;;0.10;;
60641;SDS011;46837;52.446;-1.930;2022-12-26T02:57:12;0.08;;;0.00;;
60641;SDS011;46837;52.446;-1.930;2022-12-26T02:59:12;0.42;;;0.22;;
60641;SDS011;46837;52.446;-1.930;2022-12-26T03:00:12;0.62;;;0.10;;
60641;SDS011;46837;52.446;-1.930;2022-12-26T03:01:18;1.38;;;0.20;;
60641;SDS011;46837;52.446;-1.930;2022-12-26T03:02:18;0.88;;;0.30;;
60641;SDS011;46837;52.446;-1.930;2022-12-26T03:04:11;3.34;;;0.28;;
60641;SDS011;46837;52.446;-1.930;2022-12-26T03:05:12;1.24;;;0.16;;
60641;SDS011;46837;52.446;-1.930;2022-12-26T03:06:12;0.36;;;0.10;;
60641;SDS011;46837;52.446;-1.930;2022-12-26T03:07:14;1.08;;;0.20;;
60641;SDS011;46837;52.446;-1.930;2022-12-26T03:08:11;1.18;;;0.28;;
60641;SDS011;46837;52.446;-1.930;2022-12-26T03:09:11;1.12;;;0.46;;
60641;SDS011;46837;52.446;-1.930;2022-12-26T03:11:11;1.66;;;0.32;;
60641;SDS011;46837;52.446;-1.930;2022-12-26T03:13:29;4.50;;;0.38;;
60641;SDS011;46837;52.446;-1.930;2022-12-26T03:14:11;2.78;;;0.38;;
60641;SDS011;46837;52.446;-1.930;2022-12-26T03:15:11;1.68;;;0.60;;
60641;SDS011;46837;52.446;-1.930;2022-12-26T03:16:11;4.14;;;0.96;;
60641;SDS011;46837;52.446;-1.930;2022-12-26T03:17:11;5.16;;;0.54;;
60641;SDS011;46837;52.446;-1.930;2022-12-26T03:18:07;2.32;;;0.34;;
60641;SDS011;46837;52.446;-1.930;2022-12-26T03:19:07;2.12;;;0.44;;
60641;SDS011;46837;52.446;-1.930;2022-12-26T03:20:10;2.66;;;0.40;;
60641;SDS011;46837;52.446;-1.930;2022-12-26T03:21:07;4.20;;;0.44;;
60641;SDS011;46837;52.446;-1.930;2022-12-26T03:22:11;6.58;;;0.64;;
60641;SDS011;46837;52.446;-1.930;2022-12-26T03:23:10;2.42;;;1.40;;
60641;SDS011;46837;52.446;-1.930;2022-12-26T03:24:08;1.98;;;0.30;;
60641;SDS011;46837;52.446;-1.930;2022-12-26T03:25:16;3.16;;;0.80;;
60641;SDS011;46837;52.446;-1.930;2022-12-26T03:26:11;8.58;;;0.66;;
60641;SDS011;46837;52.446;-1.930;2022-12-26T03:27:07;3.14;;;0.30;;
60641;SDS011;46837;52.446;-1.930;2022-12-26T03:28:07;4.18;;;0.36;;
60641;SDS011;46837;52.446;-1.930;2022-12-26T03:29:12;2.80;;;0.44;;
60641;SDS011;46837;52.446;-1.930;2022-12-26T03:30:11;5.52;;;0.44;;
60641;SDS011;46837;52.446;-1.930;2022-12-26T03:31:10;5.68;;;0.84;;
60641;SDS011;46837;52.446;-1.930;2022-12-26T03:32:08;1.16;;;0.54;;
60641;SDS011;46837;52.446;-1.930;2022-12-26T03:33:11;2.02;;;0.84;;
60641;SDS011;46837;52.446;-1.930;2022-12-26T03:34:11;3.38;;;0.62;;
60641;SDS011;46837;52.446;-1.930;2022-12-26T03:35:10;3.00;;;0.24;;
60641;SDS011;46837;52.446;-1.930;2022-12-26T03:36:11;4.74;;;0.42;;
60641;SDS011;46837;52.446;-1.930;2022-12-26T03:38:07;3.30;;;0.34;;
60641;SDS011;46837;52.446;-1.930;2022-12-26T03:41:16;3.02;;;0.26;;
60641;SDS011;46837;52.446;-1.930;2022-12-26T03:43:14;3.18;;;0.40;;
60641;SDS011;46837;52.446;-1.930;2022-12-26T03:45:20;5.54;;;1.06;;
60641;SDS011;46837;52.446;-1.930;2022-12-26T03:47:13;1.42;;;0.68;;
60641;SDS011;46837;52.446;-1.930;2022-12-26T03:49:12;8.84;;;0.76;;
60641;SDS011;46837;52.446;-1.930;2022-12-26T03:50:53;2.02;;;0.66;;
60641;SDS011;46837;52.446;-1.930;2022-12-26T03:51:14;2.88;;;0.30;;
60641;SDS011;46837;52.446;-1.930;2022-12-26T03:53:16;4.02;;;0.50;;
60641;SDS011;46837;52.446;-1.930;2022-12-26T03:54:14;4.14;;;1.44;;
60641;SDS011;46837;52.446;-1.930;2022-12-26T03:55:14;4.06;;;0.60;;
60641;SDS011;46837;52.446;-1.930;2022-12-26T03:56:12;3.80;;;1.16;;
60641;SDS011;46837;52.446;-1.930;2022-12-26T03:57:13;7.96;;;1.76;;
60641;SDS011;46837;52.446;-1.930;2022-12-26T03:58:12;2.28;;;0.42;;
60641;SDS011;46837;52.446;-1.930;2022-12-26T03:59:12;4.18;;;0.58;;
60641;SDS011;46837;52.446;-1.930;2022-12-26T04:00:11;4.10;;;0.72;;
60641;SDS011;46837;52.446;-1.930;2022-12-26T04:01:13;5.42;;;0.74;;
60641;SDS011;46837;52.446;-1.930;2022-12-26T04:02:11;2.20;;;0.58;;
60641;SDS011;46837;52.446;-1.930;2022-12-26T04:03:11;6.42;;;0.68;;
60641;SDS011;46837;52.446;-1.930;2022-12-26T04:04:11;5.04;;;0.52;;
60641;SDS011;46837;52.446;-1.930;2022-12-26T04:05:11;3.12;;;0.54;;
60641;SDS011;46837;52.446;-1.930;2022-12-26T04:06:15;6.82;;;0.36;;
60641;SDS011;46837;52.446;-1.930;2022-12-26T04:07:12;3.90;;;0.66;;
60641;SDS011;46837;52.446;-1.930;2022-12-26T04:08:16;4.64;;;0.38;;
60641;SDS011;46837;52.446;-1.930;2022-12-26T04:09:15;3.74;;;0.52;;
60641;SDS011;46837;52.446;-1.930;2022-12-26T04:10:15;2.46;;;0.42;;
60641;SDS011;46837;52.446;-1.930;2022-12-26T04:11:12;2.66;;;0.46;;
60641;SDS011;46837;52.446;-1.930;2022-12-26T04:12:15;3.58;;;0.34;;
60641;SDS011;46837;52.446;-1.930;2022-12-26T04:15:23;4.72;;;0.86;;
60641;SDS011;46837;52.446;-1.930;2022-12-26T04:17:16;9.02;;;0.94;;
60641;SDS011;46837;52.446;-1.930;2022-12-26T04:18:12;4.06;;;0.74;;
60641;SDS011;46837;52.446;-1.930;2022-12-26T04:20:11;3.28;;;0.94;;
60641;SDS011;46837;52.446;-1.930;2022-12-26T04:23:15;2.66;;;0.58;;
60641;SDS011;46837;52.446;-1.930;2022-12-26T04:24:12;4.44;;;0.48;;
60641;SDS011;46837;52.446;-1.930;2022-12-26T04:26:13;2.28;;;0.50;;
60641;SDS011;46837;52.446;-1.930;2022-12-26T04:27:11;7.78;;;0.88;;
60641;SDS011;46837;52.446;-1.930;2022-12-26T04:28:11;9.48;;;0.96;;
60641;SDS011;46837;52.446;-1.930;2022-12-26T04:29:11;3.78;;;0.52;;
60641;SDS011;46837;52.446;-1.930;2022-12-26T04:30:11;5.80;;;0.50;;
60641;SDS011;46837;52.446;-1.930;2022-12-26T04:31:16;5.00;;;0.66;;
60641;SDS011;46837;52.446;-1.930;2022-12-26T04:32:12;3.84;;;0.50;;
60641;SDS011;46837;52.446;-1.930;2022-12-26T04:33:17;5.74;;;0.66;;
60641;SDS011;46837;52.446;-1.930;2022-12-26T04:34:16;3.40;;;0.68;;
60641;SDS011;46837;52.446;-1.930;2022-12-26T04:35:15;4.64;;;0.76;;
60641;SDS011;46837;52.446;-1.930;2022-12-26T04:36:15;4.38;;;0.78;;
60641;SDS011;46837;52.446;-1.930;2022-12-26T04:37:16;5.42;;;1.10;;
60641;SDS011;46837;52.446;-1.930;2022-12-26T04:38:12;15.14;;;1.36;;
60641;SDS011;46837;52.446;-1.930;2022-12-26T04:39:11;6.52;;;0.90;;
60641;SDS011;46837;52.446;-1.930;2022-12-26T04:40:12;6.92;;;0.76;;
60641;SDS011;46837;52.446;-1.930;2022-12-26T04:41:11;6.82;;;0.84;;
60641;SDS011;46837;52.446;-1.930;2022-12-26T04:42:11;5.08;;;0.88;;
60641;SDS011;46837;52.446;-1.930;2022-12-26T04:43:11;5.60;;;0.92;;
60641;SDS011;46837;52.446;-1.930;2022-12-26T04:44:07;5.92;;;1.04;;
60641;SDS011;46837;52.446;-1.930;2022-12-26T04:45:07;12.46;;;1.02;;
60641;SDS011;46837;52.446;-1.930;2022-12-26T04:46:07;7.96;;;1.08;;
60641;SDS011;46837;52.446;-1.930;2022-12-26T04:47:07;3.82;;;0.62;;
60641;SDS011;46837;52.446;-1.930;2022-12-26T04:48:11;4.50;;;0.56;;
60641;SDS011;46837;52.446;-1.930;2022-12-26T04:49:12;7.02;;;0.84;;
60641;SDS011;46837;52.446;-1.930;2022-12-26T04:50:11;7.72;;;0.56;;
60641;SDS011;46837;52.446;-1.930;2022-12-26T04:51:07;10.66;;;0.94;;
60641;SDS011;46837;52.446;-1.930;2022-12-26T04:52:08;3.78;;;0.92;;
60641;SDS011;46837;52.446;-1.930;2022-12-26T04:53:07;6.32;;;0.74;;
60641;SDS011;46837;52.446;-1.930;2022-12-26T04:54:07;6.82;;;0.84;;
60641;SDS011;46837;52.446;-1.930;2022-12-26T04:55:07;4.34;;;0.62;;
60641;SDS011;46837;52.446;-1.930;2022-12-26T04:56:07;9.38;;;1.16;;
60641;SDS011;46837;52.446;-1.930;2022-12-26T04:57:07;6.12;;;0.72;;
60641;SDS011;46837;52.446;-1.930;2022-12-26T04:58:07;6.56;;;0.70;;
60641;SDS011;46837;52.446;-1.930;2022-12-26T04:59:07;3.30;;;0.70;;
60641;SDS011;46837;52.446;-1.930;2022-12-26T05:00:07;4.80;;;0.88;;
60641;SDS011;46837;52.446;-1.930;2022-12-26T05:01:11;5.10;;;0.72;;
60641;SDS011;46837;52.446;-1.930;2022-12-26T05:02:11;9.16;;;1.26;;
60641;SDS011;46837;52.446;-1.930;2022-12-26T05:03:11;8.18;;;0.92;;
60641;SDS011;46837;52.446;-1.930;2022-12-26T05:04:14;8.08;;;0.84;;
60641;SDS011;46837;52.446;-1.930;2022-12-26T05:05:11;8.72;;;0.92;;
60641;SDS011;46837;52.446;-1.930;2022-12-26T05:06:11;14.24;;;2.80;;
60641;SDS011;46837;52.446;-1.930;2022-12-26T05:08:21;8.76;;;1.30;;
60641;SDS011;46837;52.446;-1.930;2022-12-26T05:09:11;11.88;;;1.16;;
60641;SDS011;46837;52.446;-1.930;2022-12-26T05:10:07;6.26;;;0.88;;
60641;SDS011;46837;52.446;-1.930;2022-12-26T05:11:07;6.28;;;0.88;;
60641;SDS011;46837;52.446;-1.930;2022-12-26T05:12:07;11.96;;;1.40;;
60641;SDS011;46837;52.446;-1.930;2022-12-26T05:13:07;6.72;;;0.74;;
60641;SDS011;46837;52.446;-1.930;2022-12-26T05:14:07;7.32;;;0.76;;
60641;SDS011;46837;52.446;-1.930;2022-12-26T05:15:07;7.08;;;0.62;;
60641;SDS011;46837;52.446;-1.930;2022-12-26T05:16:11;7.16;;;0.84;;
60641;SDS011;46837;52.446;-1.930;2022-12-26T05:17:11;3.90;;;0.78;;
60641;SDS011;46837;52.446;-1.930;2022-12-26T05:18:11;6.72;;;1.14;;
60641;SDS011;46837;52.446;-1.930;2022-12-26T05:19:11;7.04;;;1.16;;
60641;SDS011;46837;52.446;-1.930;2022-12-26T05:20:11;2.96;;;0.66;;
60641;SDS011;46837;52.446;-1.930;2022-12-26T05:21:11;6.10;;;0.68;;
60641;SDS011;46837;52.446;-1.930;2022-12-26T05:22:11;3.08;;;0.66;;
60641;SDS011;46837;52.446;-1.930;2022-12-26T05:23:28;7.56;;;0.68;;
60641;SDS011;46837;52.446;-1.930;2022-12-26T05:24:11;9.02;;;0.96;;
60641;SDS011;46837;52.446;-1.930;2022-12-26T05:25:12;5.32;;;1.52;;
60641;SDS011;46837;52.446;-1.930;2022-12-26T05:26:14;18.32;;;2.64;;
60641;SDS011;46837;52.446;-1.930;2022-12-26T05:27:11;8.16;;;1.08;;
60641;SDS011;46837;52.446;-1.930;2022-12-26T05:28:11;4.56;;;0.66;;
60641;SDS011;46837;52.446;-1.930;2022-12-26T05:29:07;8.40;;;0.80;;
60641;SDS011;46837;52.446;-1.930;2022-12-26T05:30:07;7.74;;;0.88;;
60641;SDS011;46837;52.446;-1.930;2022-12-26T05:31:11;6.56;;;0.96;;
60641;SDS011;46837;52.446;-1.930;2022-12-26T05:32:07;2.70;;;0.92;;
60641;SDS011;46837;52.446;-1.930;2022-12-26T05:33:11;3.86;;;0.84;;
60641;SDS011;46837;52.446;-1.930;2022-12-26T05:34:11;6.86;;;1.02;;
60641;SDS011;46837;52.446;-1.930;2022-12-26T05:35:07;7.30;;;0.76;;
60641;SDS011;46837;52.446;-1.930;2022-12-26T05:36:07;7.00;;;1.08;;
60641;SDS011;46837;52.446;-1.930;2022-12-26T05:37:07;4.92;;;0.92;;
60641;SDS011;46837;52.446;-1.930;2022-12-26T05:38:08;11.58;;;1.44;;
60641;SDS011;46837;52.446;-1.930;2022-12-26T05:39:07;10.70;;;2.02;;
60641;SDS011;46837;52.446;-1.930;2022-12-26T05:40:07;6.60;;;2.12;;
60641;SDS011;46837;52.446;-1.930;2022-12-26T05:41:07;6.42;;;1.26;;
60641;SDS011;46837;52.446;-1.930;2022-12-26T05:42:07;7.46;;;1.54;;
60641;SDS011;46837;52.446;-1.930;2022-12-26T05:43:07;2.44;;;0.58;;
60641;SDS011;46837;52.446;-1.930;2022-12-26T05:44:07;4.46;;;0.84;;
60641;SDS011;46837;52.446;-1.930;2022-12-26T05:45:07;6.78;;;0.94;;
60641;SDS011;46837;52.446;-1.930;2022-12-26T05:46:07;7.46;;;1.36;;
60641;SDS011;46837;52.446;-1.930;2022-12-26T05:47:07;9.94;;;1.08;;
60641;SDS011;46837;52.446;-1.930;2022-12-26T05:48:07;5.98;;;1.46;;
60641;SDS011;46837;52.446;-1.930;2022-12-26T05:49:07;5.20;;;0.66;;
60641;SDS011;46837;52.446;-1.930;2022-12-26T05:50:07;4.28;;;0.64;;
60641;SDS011;46837;52.446;-1.930;2022-12-26T05:51:07;9.84;;;1.46;;
60641;SDS011;46837;52.446;-1.930;2022-12-26T05:52:07;4.32;;;1.10;;
60641;SDS011;46837;52.446;-1.930;2022-12-26T05:53:07;4.66;;;0.94;;
60641;SDS011;46837;52.446;-1.930;2022-12-26T05:54:07;3.08;;;0.42;;
60641;SDS011;46837;52.446;-1.930;2022-12-26T05:55:07;3.02;;;0.66;;
60641;SDS011;46837;52.446;-1.930;2022-12-26T05:56:09;3.14;;;0.46;;
60641;SDS011;46837;52.446;-1.930;2022-12-26T05:57:07;10.78;;;0.78;;
60641;SDS011;46837;52.446;-1.930;2022-12-26T05:58:07;5.98;;;1.54;;
60641;SDS011;46837;52.446;-1.930;2022-12-26T05:59:07;5.54;;;1.20;;
60641;SDS011;46837;52.446;-1.930;2022-12-26T06:00:07;5.24;;;0.72;;
60641;SDS011;46837;52.446;-1.930;2022-12-26T06:01:08;3.12;;;0.52;;
60641;SDS011;46837;52.446;-1.930;2022-12-26T06:02:07;4.28;;;1.86;;
60641;SDS011;46837;52.446;-1.930;2022-12-26T06:03:07;4.16;;;0.70;;
60641;SDS011;46837;52.446;-1.930;2022-12-26T06:04:07;2.22;;;0.48;;
60641;SDS011;46837;52.446;-1.930;2022-12-26T06:05:07;3.84;;;0.64;;
60641;SDS011;46837;52.446;-1.930;2022-12-26T06:06:07;6.24;;;0.66;;
60641;SDS011;46837;52.446;-1.930;2022-12-26T06:07:07;4.66;;;1.44;;
60641;SDS011;46837;52.446;-1.930;2022-12-26T06:08:07;3.62;;;0.84;;
60641;SDS011;46837;52.446;-1.930;2022-12-26T06:09:07;7.48;;;0.78;;
60641;SDS011;46837;52.446;-1.930;2022-12-26T06:10:07;3.38;;;0.80;;
60641;SDS011;46837;52.446;-1.930;2022-12-26T06:11:08;6.12;;;0.90;;
60641;SDS011;46837;52.446;-1.930;2022-12-26T06:12:07;3.90;;;1.08;;
60641;SDS011;46837;52.446;-1.930;2022-12-26T06:13:07;2.06;;;0.64;;
60641;SDS011;46837;52.446;-1.930;2022-12-26T06:14:07;7.34;;;0.72;;
60641;SDS011;46837;52.446;-1.930;2022-12-26T06:15:07;2.88;;;0.32;;
60641;SDS011;46837;52.446;-1.930;2022-12-26T06:16:08;4.34;;;0.66;;
60641;SDS011;46837;52.446;-1.930;2022-12-26T06:17:07;5.08;;;0.72;;
60641;SDS011;46837;52.446;-1.930;2022-12-26T06:18:07;5.62;;;1.12;;
60641;SDS011;46837;52.446;-1.930;2022-12-26T06:19:07;5.12;;;1.84;;
60641;SDS011;46837;52.446;-1.930;2022-12-26T06:20:07;4.06;;;0.98;;
60641;SDS011;46837;52.446;-1.930;2022-12-26T06:21:09;9.42;;;0.68;;
60641;SDS011;46837;52.446;-1.930;2022-12-26T06:22:07;6.72;;;0.98;;
60641;SDS011;46837;52.446;-1.930;2022-12-26T06:23:07;4.04;;;0.50;;
60641;SDS011;46837;52.446;-1.930;2022-12-26T06:24:07;4.38;;;0.80;;
60641;SDS011;46837;52.446;-1.930;2022-12-26T06:25:07;11.58;;;0.68;;
60641;SDS011;46837;52.446;-1.930;2022-12-26T06:26:07;6.68;;;1.00;;
60641;SDS011;46837;52.446;-1.930;2022-12-26T06:27:07;4.44;;;1.02;;
60641;SDS011;46837;52.446;-1.930;2022-12-26T06:28:07;1.94;;;0.60;;
60641;SDS011;46837;52.446;-1.930;2022-12-26T06:29:07;8.28;;;0.54;;
60641;SDS011;46837;52.446;-1.930;2022-12-26T06:30:07;4.06;;;0.50;;
60641;SDS011;46837;52.446;-1.930;2022-12-26T06:31:11;5.58;;;0.94;;
60641;SDS011;46837;52.446;-1.930;2022-12-26T06:32:07;7.88;;;1.20;;
60641;SDS011;46837;52.446;-1.930;2022-12-26T06:33:07;7.14;;;0.80;;
60641;SDS011;46837;52.446;-1.930;2022-12-26T06:34:08;8.82;;;0.84;;
60641;SDS011;46837;52.446;-1.930;2022-12-26T06:35:07;4.34;;;0.82;;
60641;SDS011;46837;52.446;-1.930;2022-12-26T06:36:13;1.92;;;0.38;;
60641;SDS011;46837;52.446;-1.930;2022-12-26T06:37:07;4.44;;;1.26;;
60641;SDS011;46837;52.446;-1.930;2022-12-26T06:38:07;5.16;;;0.68;;
60641;SDS011;46837;52.446;-1.930;2022-12-26T06:39:07;2.42;;;0.60;;
60641;SDS011;46837;52.446;-1.930;2022-12-26T06:40:07;4.80;;;0.80;;
60641;SDS011;46837;52.446;-1.930;2022-12-26T06:41:07;2.96;;;0.52;;
60641;SDS011;46837;52.446;-1.930;2022-12-26T06:42:07;3.28;;;0.80;;
60641;SDS011;46837;52.446;-1.930;2022-12-26T06:43:07;4.94;;;0.70;;
60641;SDS011;46837;52.446;-1.930;2022-12-26T06:44:08;5.28;;;0.94;;